sensor_id;sensor_type;location;lat;lon;timestamp;temperature;humidity
19258;DHT22;9763;48.780;9.212;2022-09-03T00:02:16;21.80;42.60
19258;DHT22;9763;48.780;9.212;2022-09-03T00:05:48;21.80;42.60
19258;DHT22;9763;48.780;9.212;2022-09-03T00:09:22;21.80;42.50
19258;DHT22;9763;48.780;9.212;2022-09-03T00:12:51;21.80;42.70
19258;DHT22;9763;48.780;9.212;2022-09-03T00:16:21;21.80;42.70
19258;DHT22;9763;48.780;9.212;2022-09-03T00:19:55;21.80;42.70
19258;DHT22;9763;48.780;9.212;2022-09-03T00:23:24;21.80;42.80
19258;DHT22;9763;48.780;9.212;2022-09-03T00:26:54;21.90;42.90
19258;DHT22;9763;48.780;9.212;2022-09-03T00:30:22;21.90;42.80
19258;DHT22;9763;48.780;9.212;2022-09-03T00:33:49;21.90;42.80
19258;DHT22;9763;48.780;9.212;2022-09-03T00:37:18;21.90;42.90
19258;DHT22;9763;48.780;9.212;2022-09-03T00:40:55;21.90;42.90
19258;DHT22;9763;48.780;9.212;2022-09-03T00:44:47;21.90;43.10
19258;DHT22;9763;48.780;9.212;2022-09-03T00:48:22;21.90;43.30
19258;DHT22;9763;48.780;9.212;2022-09-03T00:51:56;22.00;43.30
19258;DHT22;9763;48.780;9.212;2022-09-03T00:55:40;22.10;43.50
19258;DHT22;9763;48.780;9.212;2022-09-03T00:59:24;22.10;43.50
19258;DHT22;9763;48.780;9.212;2022-09-03T01:03:03;22.10;43.60
19258;DHT22;9763;48.780;9.212;2022-09-03T01:06:34;22.10;43.50
19258;DHT22;9763;48.780;9.212;2022-09-03T01:10:15;22.10;43.50
19258;DHT22;9763;48.780;9.212;2022-09-03T01:13:56;22.00;43.60
19258;DHT22;9763;48.780;9.212;2022-09-03T01:17:33;22.10;43.70
19258;DHT22;9763;48.780;9.212;2022-09-03T01:21:18;22.10;43.60
19258;DHT22;9763;48.780;9.212;2022-09-03T01:25:14;22.00;43.60
19258;DHT22;9763;48.780;9.212;2022-09-03T01:29:01;22.10;43.70
19258;DHT22;9763;48.780;9.212;2022-09-03T01:32:38;22.10;43.80
19258;DHT22;9763;48.780;9.212;2022-09-03T01:36:15;22.10;43.90
19258;DHT22;9763;48.780;9.212;2022-09-03T01:39:54;22.10;43.80
19258;DHT22;9763;48.780;9.212;2022-09-03T01:43:34;22.10;44.00
19258;DHT22;9763;48.780;9.212;2022-09-03T01:47:19;22.10;44.00
19258;DHT22;9763;48.780;9.212;2022-09-03T01:50:57;22.10;44.20
19258;DHT22;9763;48.780;9.212;2022-09-03T01:54:42;22.00;44.00
19258;DHT22;9763;48.780;9.212;2022-09-03T01:58:20;22.00;44.10
19258;DHT22;9763;48.780;9.212;2022-09-03T02:01:56;22.00;43.90
19258;DHT22;9763;48.780;9.212;2022-09-03T02:05:26;22.00;44.00
19258;DHT22;9763;48.780;9.212;2022-09-03T02:08:51;21.90;44.00
19258;DHT22;9763;48.780;9.212;2022-09-03T02:12:15;21.90;43.90
19258;DHT22;9763;48.780;9.212;2022-09-03T02:15:44;21.90;43.90
19258;DHT22;9763;48.780;9.212;2022-09-03T02:19:13;21.90;44.00
19258;DHT22;9763;48.780;9.212;2022-09-03T02:22:41;21.80;43.90
19258;DHT22;9763;48.780;9.212;2022-09-03T02:26:06;21.80;44.00
19258;DHT22;9763;48.780;9.212;2022-09-03T02:29:32;21.80;44.00
19258;DHT22;9763;48.780;9.212;2022-09-03T02:32:56;21.80;44.00
19258;DHT22;9763;48.780;9.212;2022-09-03T02:36:24;21.90;44.10
19258;DHT22;9763;48.780;9.212;2022-09-03T02:39:52;21.80;44.20
19258;DHT22;9763;48.780;9.212;2022-09-03T02:43:19;21.70;44.00
19258;DHT22;9763;48.780;9.212;2022-09-03T02:46:54;21.70;44.10
19258;DHT22;9763;48.780;9.212;2022-09-03T02:50:20;21.70;44.20
19258;DHT22;9763;48.780;9.212;2022-09-03T02:53:43;21.60;44.00
19258;DHT22;9763;48.780;9.212;2022-09-03T02:57:10;21.60;44.00
19258;DHT22;9763;48.780;9.212;2022-09-03T03:00:35;21.50;44.10
19258;DHT22;9763;48.780;9.212;2022-09-03T03:03:58;21.50;44.10
19258;DHT22;9763;48.780;9.212;2022-09-03T03:07:22;22.00;44.60
19258;DHT22;9763;48.780;9.212;2022-09-03T03:10:47;21.40;44.10
19258;DHT22;9763;48.780;9.212;2022-09-03T03:14:14;21.40;44.30
19258;DHT22;9763;48.780;9.212;2022-09-03T03:17:38;22.00;45.50
19258;DHT22;9763;48.780;9.212;2022-09-03T03:21:06;21.30;44.50
19258;DHT22;9763;48.780;9.212;2022-09-03T03:24:31;21.20;44.70
19258;DHT22;9763;48.780;9.212;2022-09-03T03:27:54;21.30;44.80
19258;DHT22;9763;48.780;9.212;2022-09-03T03:31:21;21.20;44.70
19258;DHT22;9763;48.780;9.212;2022-09-03T03:34:45;21.10;44.80
19258;DHT22;9763;48.780;9.212;2022-09-03T03:38:08;21.20;44.80
19258;DHT22;9763;48.780;9.212;2022-09-03T03:41:34;21.10;44.90
19258;DHT22;9763;48.780;9.212;2022-09-03T03:44:59;21.00;45.00
19258;DHT22;9763;48.780;9.212;2022-09-03T03:48:25;21.00;44.90
19258;DHT22;9763;48.780;9.212;2022-09-03T03:51:48;21.00;45.20
19258;DHT22;9763;48.780;9.212;2022-09-03T03:55:13;21.00;45.20
19258;DHT22;9763;48.780;9.212;2022-09-03T03:58:38;21.00;45.30
19258;DHT22;9763;48.780;9.212;2022-09-03T04:02:03;21.00;45.50
19258;DHT22;9763;48.780;9.212;2022-09-03T04:05:28;21.00;45.60
19258;DHT22;9763;48.780;9.212;2022-09-03T04:08:55;21.00;45.80
19258;DHT22;9763;48.780;9.212;2022-09-03T04:12:18;21.00;45.90
19258;DHT22;9763;48.780;9.212;2022-09-03T04:15:42;21.00;45.90
19258;DHT22;9763;48.780;9.212;2022-09-03T04:19:06;21.00;46.00
19258;DHT22;9763;48.780;9.212;2022-09-03T04:22:31;21.00;46.10
19258;DHT22;9763;48.780;9.212;2022-09-03T04:25:54;21.00;46.20
19258;DHT22;9763;48.780;9.212;2022-09-03T04:29:18;21.00;46.20
19258;DHT22;9763;48.780;9.212;2022-09-03T04:32:42;20.90;46.20
19258;DHT22;9763;48.780;9.212;2022-09-03T04:36:19;20.90;46.20
19258;DHT22;9763;48.780;9.212;2022-09-03T04:39:45;20.90;46.30
19258;DHT22;9763;48.780;9.212;2022-09-03T04:43:09;20.90;46.50
19258;DHT22;9763;48.780;9.212;2022-09-03T04:46:33;21.00;46.60
19258;DHT22;9763;48.780;9.212;2022-09-03T04:49:57;20.80;46.50
19258;DHT22;9763;48.780;9.212;2022-09-03T04:53:21;20.80;46.70
19258;DHT22;9763;48.780;9.212;2022-09-03T04:56:46;20.80;46.80
19258;DHT22;9763;48.780;9.212;2022-09-03T05:00:11;20.90;47.00
19258;DHT22;9763;48.780;9.212;2022-09-03T05:03:35;20.70;47.00
19258;DHT22;9763;48.780;9.212;2022-09-03T05:06:59;20.70;47.10
19258;DHT22;9763;48.780;9.212;2022-09-03T05:10:23;20.70;47.30
19258;DHT22;9763;48.780;9.212;2022-09-03T05:13:49;20.70;47.40
19258;DHT22;9763;48.780;9.212;2022-09-03T05:17:14;20.70;47.60
19258;DHT22;9763;48.780;9.212;2022-09-03T05:20:38;20.70;47.60
19258;DHT22;9763;48.780;9.212;2022-09-03T05:24:02;20.80;47.80
19258;DHT22;9763;48.780;9.212;2022-09-03T05:27:26;20.80;48.00
19258;DHT22;9763;48.780;9.212;2022-09-03T05:30:58;20.90;48.00
19258;DHT22;9763;48.780;9.212;2022-09-03T05:34:23;20.90;48.50
19258;DHT22;9763;48.780;9.212;2022-09-03T05:37:46;20.90;48.20
19258;DHT22;9763;48.780;9.212;2022-09-03T05:41:11;21.00;48.30
19258;DHT22;9763;48.780;9.212;2022-09-03T05:44:37;21.10;48.50
19258;DHT22;9763;48.780;9.212;2022-09-03T05:48:02;21.20;48.50
19258;DHT22;9763;48.780;9.212;2022-09-03T05:51:26;21.30;48.70
19258;DHT22;9763;48.780;9.212;2022-09-03T05:54:50;21.40;48.60
19258;DHT22;9763;48.780;9.212;2022-09-03T05:58:13;21.60;48.50
19258;DHT22;9763;48.780;9.212;2022-09-03T06:01:39;21.70;48.70
19258;DHT22;9763;48.780;9.212;2022-09-03T06:05:15;21.80;48.80
19258;DHT22;9763;48.780;9.212;2022-09-03T06:08:40;21.90;48.80
19258;DHT22;9763;48.780;9.212;2022-09-03T06:12:06;22.00;48.60
19258;DHT22;9763;48.780;9.212;2022-09-03T06:15:29;22.10;48.00
19258;DHT22;9763;48.780;9.212;2022-09-03T06:18:53;22.10;48.30
19258;DHT22;9763;48.780;9.212;2022-09-03T06:22:18;22.10;48.20
19258;DHT22;9763;48.780;9.212;2022-09-03T06:25:42;22.10;48.10
19258;DHT22;9763;48.780;9.212;2022-09-03T06:29:06;22.10;48.10
19258;DHT22;9763;48.780;9.212;2022-09-03T06:32:29;22.10;48.00
19258;DHT22;9763;48.780;9.212;2022-09-03T06:35:53;22.10;48.20
19258;DHT22;9763;48.780;9.212;2022-09-03T06:39:21;22.10;48.40
19258;DHT22;9763;48.780;9.212;2022-09-03T06:42:54;22.00;48.30
19258;DHT22;9763;48.780;9.212;2022-09-03T06:46:23;22.00;48.70
19258;DHT22;9763;48.780;9.212;2022-09-03T06:49:47;22.00;48.60
19258;DHT22;9763;48.780;9.212;2022-09-03T06:53:10;22.00;48.50
19258;DHT22;9763;48.780;9.212;2022-09-03T06:56:37;22.10;48.70
19258;DHT22;9763;48.780;9.212;2022-09-03T07:00:02;22.00;48.80
19258;DHT22;9763;48.780;9.212;2022-09-03T07:03:27;22.00;48.90
19258;DHT22;9763;48.780;9.212;2022-09-03T07:06:51;22.00;49.00
19258;DHT22;9763;48.780;9.212;2022-09-03T07:10:14;22.00;49.10
19258;DHT22;9763;48.780;9.212;2022-09-03T07:13:44;22.00;49.30
19258;DHT22;9763;48.780;9.212;2022-09-03T07:17:09;22.10;49.60
19258;DHT22;9763;48.780;9.212;2022-09-03T07:20:32;22.10;49.70
19258;DHT22;9763;48.780;9.212;2022-09-03T07:23:56;22.20;50.00
19258;DHT22;9763;48.780;9.212;2022-09-03T07:27:21;22.30;50.10
19258;DHT22;9763;48.780;9.212;2022-09-03T07:30:46;22.40;50.20
19258;DHT22;9763;48.780;9.212;2022-09-03T07:34:11;22.60;50.40
19258;DHT22;9763;48.780;9.212;2022-09-03T07:37:40;22.70;50.40
19258;DHT22;9763;48.780;9.212;2022-09-03T07:41:06;22.80;50.60
19258;DHT22;9763;48.780;9.212;2022-09-03T07:44:31;22.90;50.90
19258;DHT22;9763;48.780;9.212;2022-09-03T07:47:55;23.10;51.20
19258;DHT22;9763;48.780;9.212;2022-09-03T07:51:21;23.40;51.50
19258;DHT22;9763;48.780;9.212;2022-09-03T07:54:47;23.60;52.30
19258;DHT22;9763;48.780;9.212;2022-09-03T07:58:12;24.10;53.10
19258;DHT22;9763;48.780;9.212;2022-09-03T08:01:37;24.60;53.00
19258;DHT22;9763;48.780;9.212;2022-09-03T08:05:08;25.00;52.30
19258;DHT22;9763;48.780;9.212;2022-09-03T08:08:37;25.30;51.70
19258;DHT22;9763;48.780;9.212;2022-09-03T08:12:13;25.30;50.60
19258;DHT22;9763;48.780;9.212;2022-09-03T08:16:36;25.80;50.30
19258;DHT22;9763;48.780;9.212;2022-09-03T08:20:20;25.70;49.70
19258;DHT22;9763;48.780;9.212;2022-09-03T08:23:46;25.90;49.40
19258;DHT22;9763;48.780;9.212;2022-09-03T08:27:10;25.80;49.50
19258;DHT22;9763;48.780;9.212;2022-09-03T08:30:35;25.90;50.10
19258;DHT22;9763;48.780;9.212;2022-09-03T08:34:00;26.10;51.20
19258;DHT22;9763;48.780;9.212;2022-09-03T08:37:29;26.50;52.00
19258;DHT22;9763;48.780;9.212;2022-09-03T08:41:02;27.10;54.10
19258;DHT22;9763;48.780;9.212;2022-09-03T08:44:37;28.10;54.70
19258;DHT22;9763;48.780;9.212;2022-09-03T08:48:11;29.30;55.20
19258;DHT22;9763;48.780;9.212;2022-09-03T08:51:39;30.30;53.50
19258;DHT22;9763;48.780;9.212;2022-09-03T08:55:19;31.30;52.10
19258;DHT22;9763;48.780;9.212;2022-09-03T08:58:46;32.10;50.00
19258;DHT22;9763;48.780;9.212;2022-09-03T09:02:19;32.60;49.20
19258;DHT22;9763;48.780;9.212;2022-09-03T09:06:05;33.00;46.20
19258;DHT22;9763;48.780;9.212;2022-09-03T09:09:38;33.00;44.80
19258;DHT22;9763;48.780;9.212;2022-09-03T09:13:21;32.80;43.80
19258;DHT22;9763;48.780;9.212;2022-09-03T09:16:58;32.60;42.70
19258;DHT22;9763;48.780;9.212;2022-09-03T09:20:34;32.30;43.00
19258;DHT22;9763;48.780;9.212;2022-09-03T09:24:09;31.80;42.00
19258;DHT22;9763;48.780;9.212;2022-09-03T09:27:46;31.80;42.30
19258;DHT22;9763;48.780;9.212;2022-09-03T09:31:15;31.40;41.80
19258;DHT22;9763;48.780;9.212;2022-09-03T09:34:40;31.10;41.50
19258;DHT22;9763;48.780;9.212;2022-09-03T09:38:03;30.60;42.20
19258;DHT22;9763;48.780;9.212;2022-09-03T09:41:27;30.30;42.60
19258;DHT22;9763;48.780;9.212;2022-09-03T09:44:51;30.30;45.10
19258;DHT22;9763;48.780;9.212;2022-09-03T09:48:20;30.70;47.00
19258;DHT22;9763;48.780;9.212;2022-09-03T09:51:48;31.30;47.60
19258;DHT22;9763;48.780;9.212;2022-09-03T09:55:22;32.10;48.70
19258;DHT22;9763;48.780;9.212;2022-09-03T09:58:47;32.90;47.50
19258;DHT22;9763;48.780;9.212;2022-09-03T10:02:13;33.70;46.30
19258;DHT22;9763;48.780;9.212;2022-09-03T10:06:00;34.20;43.70
19258;DHT22;9763;48.780;9.212;2022-09-03T10:09:57;34.40;41.50
19258;DHT22;9763;48.780;9.212;2022-09-03T10:13:37;34.30;40.60
19258;DHT22;9763;48.780;9.212;2022-09-03T10:17:10;34.20;40.40
19258;DHT22;9763;48.780;9.212;2022-09-03T10:20:44;33.90;39.40
19258;DHT22;9763;48.780;9.212;2022-09-03T10:24:30;33.70;39.30
19258;DHT22;9763;48.780;9.212;2022-09-03T10:28:04;33.30;39.10
19258;DHT22;9763;48.780;9.212;2022-09-03T10:31:44;32.20;38.60
19258;DHT22;9763;48.780;9.212;2022-09-03T10:35:29;32.70;39.00
19258;DHT22;9763;48.780;9.212;2022-09-03T10:39:03;32.30;39.20
19258;DHT22;9763;48.780;9.212;2022-09-03T10:42:43;32.00;39.40
19258;DHT22;9763;48.780;9.212;2022-09-03T10:46:15;31.80;39.50
19258;DHT22;9763;48.780;9.212;2022-09-03T10:49:49;31.70;39.80
19258;DHT22;9763;48.780;9.212;2022-09-03T10:53:29;31.60;40.10
19258;DHT22;9763;48.780;9.212;2022-09-03T10:57:23;31.50;40.50
19258;DHT22;9763;48.780;9.212;2022-09-03T11:01:03;31.60;40.70
19258;DHT22;9763;48.780;9.212;2022-09-03T11:04:40;31.70;41.10
19258;DHT22;9763;48.780;9.212;2022-09-03T11:08:16;31.80;41.00
19258;DHT22;9763;48.780;9.212;2022-09-03T11:11:48;31.90;40.50
19258;DHT22;9763;48.780;9.212;2022-09-03T11:15:23;31.90;39.90
19258;DHT22;9763;48.780;9.212;2022-09-03T11:18:54;31.70;39.40
19258;DHT22;9763;48.780;9.212;2022-09-03T11:22:20;31.50;39.20
19258;DHT22;9763;48.780;9.212;2022-09-03T11:25:48;31.20;39.10
19258;DHT22;9763;48.780;9.212;2022-09-03T11:29:19;30.90;39.20
19258;DHT22;9763;48.780;9.212;2022-09-03T11:32:54;30.60;39.30
19258;DHT22;9763;48.780;9.212;2022-09-03T11:36:28;30.30;39.50
19258;DHT22;9763;48.780;9.212;2022-09-03T11:39:55;30.10;39.80
19258;DHT22;9763;48.780;9.212;2022-09-03T11:43:26;29.80;39.90
19258;DHT22;9763;48.780;9.212;2022-09-03T11:46:53;29.60;40.00
19258;DHT22;9763;48.780;9.212;2022-09-03T11:50:21;29.40;40.20
19258;DHT22;9763;48.780;9.212;2022-09-03T11:53:55;29.10;40.40
19258;DHT22;9763;48.780;9.212;2022-09-03T11:57:24;28.90;40.90
19258;DHT22;9763;48.780;9.212;2022-09-03T12:00:51;28.70;40.80
19258;DHT22;9763;48.780;9.212;2022-09-03T12:04:17;28.40;40.90
19258;DHT22;9763;48.780;9.212;2022-09-03T12:08:08;28.20;41.10
19258;DHT22;9763;48.780;9.212;2022-09-03T12:12:10;27.90;41.70
19258;DHT22;9763;48.780;9.212;2022-09-03T12:19:58;27.50;41.90
19258;DHT22;9763;48.780;9.212;2022-09-03T12:23:26;27.30;41.90
19258;DHT22;9763;48.780;9.212;2022-09-03T12:26:51;27.10;42.40
19258;DHT22;9763;48.780;9.212;2022-09-03T12:30:22;26.90;43.30
19258;DHT22;9763;48.780;9.212;2022-09-03T12:33:48;26.70;44.10
19258;DHT22;9763;48.780;9.212;2022-09-03T12:37:19;26.60;43.30
19258;DHT22;9763;48.780;9.212;2022-09-03T12:41:06;26.40;44.20
19258;DHT22;9763;48.780;9.212;2022-09-03T12:44:48;26.20;44.10
19258;DHT22;9763;48.780;9.212;2022-09-03T12:48:13;26.00;44.40
19258;DHT22;9763;48.780;9.212;2022-09-03T12:51:39;25.70;45.50
19258;DHT22;9763;48.780;9.212;2022-09-03T12:55:28;25.50;46.30
19258;DHT22;9763;48.780;9.212;2022-09-03T12:59:00;25.10;48.60
19258;DHT22;9763;48.780;9.212;2022-09-03T13:02:35;24.80;48.50
19258;DHT22;9763;48.780;9.212;2022-09-03T13:06:07;24.50;51.40
19258;DHT22;9763;48.780;9.212;2022-09-03T13:09:35;24.20;52.50
19258;DHT22;9763;48.780;9.212;2022-09-03T13:13:04;23.80;52.80
19258;DHT22;9763;48.780;9.212;2022-09-03T13:17:07;23.50;54.00
19258;DHT22;9763;48.780;9.212;2022-09-03T13:20:45;23.20;55.80
19258;DHT22;9763;48.780;9.212;2022-09-03T13:24:42;23.00;56.90
19258;DHT22;9763;48.780;9.212;2022-09-03T13:28:24;22.70;58.60
19258;DHT22;9763;48.780;9.212;2022-09-03T13:32:06;22.60;60.10
19258;DHT22;9763;48.780;9.212;2022-09-03T13:35:45;22.50;61.40
19258;DHT22;9763;48.780;9.212;2022-09-03T13:39:21;22.60;63.50
19258;DHT22;9763;48.780;9.212;2022-09-03T13:42:52;22.70;65.00
19258;DHT22;9763;48.780;9.212;2022-09-03T13:46:23;22.80;66.10
19258;DHT22;9763;48.780;9.212;2022-09-03T13:49:55;22.90;67.50
19258;DHT22;9763;48.780;9.212;2022-09-03T13:53:49;23.10;68.40
19258;DHT22;9763;48.780;9.212;2022-09-03T13:57:32;23.30;69.40
19258;DHT22;9763;48.780;9.212;2022-09-03T14:01:09;23.50;69.80
19258;DHT22;9763;48.780;9.212;2022-09-03T14:04:50;23.60;69.80
19258;DHT22;9763;48.780;9.212;2022-09-03T14:08:33;23.80;68.90
19258;DHT22;9763;48.780;9.212;2022-09-03T14:12:24;23.90;68.50
19258;DHT22;9763;48.780;9.212;2022-09-03T14:16:05;23.90;68.90
19258;DHT22;9763;48.780;9.212;2022-09-03T14:19:38;24.00;68.10
19258;DHT22;9763;48.780;9.212;2022-09-03T14:23:22;20.90;64.40
19258;DHT22;9763;48.780;9.212;2022-09-03T14:26:55;23.90;67.70
19258;DHT22;9763;48.780;9.212;2022-09-03T14:30:31;23.90;67.80
19258;DHT22;9763;48.780;9.212;2022-09-03T14:34:10;23.80;67.80
19258;DHT22;9763;48.780;9.212;2022-09-03T14:37:59;25.20;69.70
19258;DHT22;9763;48.780;9.212;2022-09-03T14:42:03;23.70;68.00
19258;DHT22;9763;48.780;9.212;2022-09-03T14:45:55;23.60;67.90
19258;DHT22;9763;48.780;9.212;2022-09-03T14:50:02;23.60;68.10
19258;DHT22;9763;48.780;9.212;2022-09-03T14:54:03;23.60;68.50
19258;DHT22;9763;48.780;9.212;2022-09-03T14:58:02;23.60;68.50
19258;DHT22;9763;48.780;9.212;2022-09-03T15:01:39;23.60;69.50
19258;DHT22;9763;48.780;9.212;2022-09-03T15:05:11;23.70;70.00
19258;DHT22;9763;48.780;9.212;2022-09-03T15:08:53;23.70;69.60
19258;DHT22;9763;48.780;9.212;2022-09-03T15:12:37;23.80;69.90
19258;DHT22;9763;48.780;9.212;2022-09-03T15:16:19;25.40;71.30
19258;DHT22;9763;48.780;9.212;2022-09-03T15:20:13;24.00;69.50
19258;DHT22;9763;48.780;9.212;2022-09-03T15:23:54;24.20;68.80
19258;DHT22;9763;48.780;9.212;2022-09-03T15:27:41;24.40;68.90
19258;DHT22;9763;48.780;9.212;2022-09-03T15:31:20;24.50;68.70
19258;DHT22;9763;48.780;9.212;2022-09-03T15:34:58;24.70;69.00
19258;DHT22;9763;48.780;9.212;2022-09-03T15:38:38;24.80;68.30
19258;DHT22;9763;48.780;9.212;2022-09-03T15:42:09;25.00;67.90
19258;DHT22;9763;48.780;9.212;2022-09-03T15:45:50;25.00;68.00
19258;DHT22;9763;48.780;9.212;2022-09-03T15:49:26;25.10;67.50
19258;DHT22;9763;48.780;9.212;2022-09-03T15:53:03;25.20;67.20
19258;DHT22;9763;48.780;9.212;2022-09-03T15:56:40;25.30;66.70
19258;DHT22;9763;48.780;9.212;2022-09-03T16:00:17;25.40;66.00
19258;DHT22;9763;48.780;9.212;2022-09-03T16:03:48;25.30;65.50
19258;DHT22;9763;48.780;9.212;2022-09-03T16:07:25;25.40;65.00
19258;DHT22;9763;48.780;9.212;2022-09-03T16:11:04;25.30;64.60
19258;DHT22;9763;48.780;9.212;2022-09-03T16:14:36;25.70;64.60
19258;DHT22;9763;48.780;9.212;2022-09-03T16:18:06;25.20;64.30
19258;DHT22;9763;48.780;9.212;2022-09-03T16:21:47;25.10;64.40
19258;DHT22;9763;48.780;9.212;2022-09-03T16:25:19;25.00;64.40
19258;DHT22;9763;48.780;9.212;2022-09-03T16:28:52;25.00;64.50
19258;DHT22;9763;48.780;9.212;2022-09-03T16:32:30;24.90;64.30
19258;DHT22;9763;48.780;9.212;2022-09-03T16:36:29;24.80;64.20
19258;DHT22;9763;48.780;9.212;2022-09-03T16:40:07;24.80;63.90
19258;DHT22;9763;48.780;9.212;2022-09-03T16:43:43;24.80;64.20
19258;DHT22;9763;48.780;9.212;2022-09-03T16:47:18;24.70;64.30
19258;DHT22;9763;48.780;9.212;2022-09-03T16:51:04;24.70;64.50
19258;DHT22;9763;48.780;9.212;2022-09-03T16:54:45;24.60;64.40
19258;DHT22;9763;48.780;9.212;2022-09-03T16:58:23;24.50;64.40
19258;DHT22;9763;48.780;9.212;2022-09-03T17:02:06;24.50;64.80
19258;DHT22;9763;48.780;9.212;2022-09-03T17:06:20;24.40;64.70
19258;DHT22;9763;48.780;9.212;2022-09-03T17:10:00;24.40;64.80
19258;DHT22;9763;48.780;9.212;2022-09-03T17:13:55;24.40;65.30
19258;DHT22;9763;48.780;9.212;2022-09-03T17:17:46;24.40;65.00
19258;DHT22;9763;48.780;9.212;2022-09-03T17:21:42;24.40;65.30
19258;DHT22;9763;48.780;9.212;2022-09-03T17:25:20;24.50;65.50
19258;DHT22;9763;48.780;9.212;2022-09-03T17:29:01;24.50;65.20
19258;DHT22;9763;48.780;9.212;2022-09-03T17:32:44;24.50;65.00
19258;DHT22;9763;48.780;9.212;2022-09-03T17:36:35;24.50;65.00
19258;DHT22;9763;48.780;9.212;2022-09-03T17:40:17;24.50;64.90
19258;DHT22;9763;48.780;9.212;2022-09-03T17:43:53;24.50;64.70
19258;DHT22;9763;48.780;9.212;2022-09-03T17:47:41;24.40;64.50
19258;DHT22;9763;48.780;9.212;2022-09-03T17:51:31;24.30;64.10
19258;DHT22;9763;48.780;9.212;2022-09-03T17:55:08;24.20;64.20
19258;DHT22;9763;48.780;9.212;2022-09-03T17:58:38;24.20;64.50
19258;DHT22;9763;48.780;9.212;2022-09-03T18:02:21;24.00;64.40
19258;DHT22;9763;48.780;9.212;2022-09-03T18:05:54;23.90;64.50
19258;DHT22;9763;48.780;9.212;2022-09-03T18:09:26;23.90;64.70
19258;DHT22;9763;48.780;9.212;2022-09-03T18:13:10;23.80;64.60
19258;DHT22;9763;48.780;9.212;2022-09-03T18:16:48;23.70;64.60
19258;DHT22;9763;48.780;9.212;2022-09-03T18:20:17;23.60;64.50
19258;DHT22;9763;48.780;9.212;2022-09-03T18:24:10;23.60;65.40
19258;DHT22;9763;48.780;9.212;2022-09-03T18:28:06;23.50;64.40
19258;DHT22;9763;48.780;9.212;2022-09-03T18:31:52;23.40;64.30
19258;DHT22;9763;48.780;9.212;2022-09-03T18:35:33;23.30;64.20
19258;DHT22;9763;48.780;9.212;2022-09-03T18:39:25;23.10;64.10
19258;DHT22;9763;48.780;9.212;2022-09-03T18:43:15;23.20;64.40
19258;DHT22;9763;48.780;9.212;2022-09-03T18:47:22;22.90;64.30
19258;DHT22;9763;48.780;9.212;2022-09-03T18:51:36;22.80;64.30
19258;DHT22;9763;48.780;9.212;2022-09-03T18:55:34;22.70;64.40
19258;DHT22;9763;48.780;9.212;2022-09-03T18:59:47;22.60;64.60
19258;DHT22;9763;48.780;9.212;2022-09-03T19:03:52;22.60;65.00
19258;DHT22;9763;48.780;9.212;2022-09-03T19:07:48;22.50;65.10
19258;DHT22;9763;48.780;9.212;2022-09-03T19:11:41;22.40;65.10
19258;DHT22;9763;48.780;9.212;2022-09-03T19:15:37;22.40;65.30
19258;DHT22;9763;48.780;9.212;2022-09-03T19:19:40;22.40;65.40
19258;DHT22;9763;48.780;9.212;2022-09-03T19:23:35;22.40;65.60
19258;DHT22;9763;48.780;9.212;2022-09-03T19:27:23;22.40;65.50
19258;DHT22;9763;48.780;9.212;2022-09-03T19:31:43;22.30;65.60
19258;DHT22;9763;48.780;9.212;2022-09-03T19:35:32;22.30;65.70
19258;DHT22;9763;48.780;9.212;2022-09-03T19:39:34;22.30;65.80
19258;DHT22;9763;48.780;9.212;2022-09-03T19:43:37;22.20;65.80
19258;DHT22;9763;48.780;9.212;2022-09-03T19:47:39;22.20;65.60
19258;DHT22;9763;48.780;9.212;2022-09-03T19:51:34;22.20;65.70
19258;DHT22;9763;48.780;9.212;2022-09-03T19:55:24;22.30;65.90
19258;DHT22;9763;48.780;9.212;2022-09-03T19:59:11;22.10;65.80
19258;DHT22;9763;48.780;9.212;2022-09-03T20:02:58;22.00;65.90
19258;DHT22;9763;48.780;9.212;2022-09-03T20:06:41;22.00;65.90
19258;DHT22;9763;48.780;9.212;2022-09-03T20:10:24;21.90;65.70
19258;DHT22;9763;48.780;9.212;2022-09-03T20:13:48;21.90;65.90
19258;DHT22;9763;48.780;9.212;2022-09-03T20:17:35;21.90;66.00
19258;DHT22;9763;48.780;9.212;2022-09-03T20:21:11;21.80;66.20
19258;DHT22;9763;48.780;9.212;2022-09-03T20:24:51;21.80;66.40
19258;DHT22;9763;48.780;9.212;2022-09-03T20:28:42;21.80;66.60
19258;DHT22;9763;48.780;9.212;2022-09-03T20:32:32;21.70;66.70
19258;DHT22;9763;48.780;9.212;2022-09-03T20:36:22;21.70;66.80
19258;DHT22;9763;48.780;9.212;2022-09-03T20:40:07;21.80;67.00
19258;DHT22;9763;48.780;9.212;2022-09-03T20:43:52;21.80;67.10
19258;DHT22;9763;48.780;9.212;2022-09-03T20:47:55;21.80;67.20
19258;DHT22;9763;48.780;9.212;2022-09-03T20:51:35;21.80;67.30
19258;DHT22;9763;48.780;9.212;2022-09-03T20:55:06;21.80;67.10
19258;DHT22;9763;48.780;9.212;2022-09-03T20:58:40;21.80;67.10
19258;DHT22;9763;48.780;9.212;2022-09-03T21:02:20;21.70;67.10
19258;DHT22;9763;48.780;9.212;2022-09-03T21:06:08;21.70;67.10
19258;DHT22;9763;48.780;9.212;2022-09-03T21:09:47;21.70;67.30
19258;DHT22;9763;48.780;9.212;2022-09-03T21:13:23;21.70;67.10
19258;DHT22;9763;48.780;9.212;2022-09-03T21:17:11;21.60;67.10
19258;DHT22;9763;48.780;9.212;2022-09-03T21:20:50;21.60;67.50
19258;DHT22;9763;48.780;9.212;2022-09-03T21:24:25;21.60;67.50
19258;DHT22;9763;48.780;9.212;2022-09-03T21:27:59;21.50;67.70
19258;DHT22;9763;48.780;9.212;2022-09-03T21:31:31;21.50;68.20
19258;DHT22;9763;48.780;9.212;2022-09-03T21:35:03;21.50;68.50
19258;DHT22;9763;48.780;9.212;2022-09-03T21:38:35;21.60;68.60
19258;DHT22;9763;48.780;9.212;2022-09-03T21:42:05;21.60;68.60
19258;DHT22;9763;48.780;9.212;2022-09-03T21:45:39;21.60;69.60
19258;DHT22;9763;48.780;9.212;2022-09-03T21:49:12;21.50;70.30
19258;DHT22;9763;48.780;9.212;2022-09-03T21:52:47;21.50;71.00
19258;DHT22;9763;48.780;9.212;2022-09-03T21:56:43;21.50;71.80
19258;DHT22;9763;48.780;9.212;2022-09-03T22:00:29;21.50;72.50
19258;DHT22;9763;48.780;9.212;2022-09-03T22:03:55;21.50;72.80
19258;DHT22;9763;48.780;9.212;2022-09-03T22:07:24;21.40;73.00
19258;DHT22;9763;48.780;9.212;2022-09-03T22:11:04;21.40;74.20
19258;DHT22;9763;48.780;9.212;2022-09-03T22:14:40;21.20;75.10
19258;DHT22;9763;48.780;9.212;2022-09-03T22:18:16;21.10;76.20
19258;DHT22;9763;48.780;9.212;2022-09-03T22:21:55;20.90;77.00
19258;DHT22;9763;48.780;9.212;2022-09-03T22:25:26;20.80;77.70
19258;DHT22;9763;48.780;9.212;2022-09-03T22:29:02;20.60;78.20
19258;DHT22;9763;48.780;9.212;2022-09-03T22:32:39;20.50;79.10
19258;DHT22;9763;48.780;9.212;2022-09-03T22:36:13;20.40;80.00
19258;DHT22;9763;48.780;9.212;2022-09-03T22:39:45;20.40;80.90
19258;DHT22;9763;48.780;9.212;2022-09-03T22:43:33;20.40;81.60
19258;DHT22;9763;48.780;9.212;2022-09-03T22:47:07;20.40;82.00
19258;DHT22;9763;48.780;9.212;2022-09-03T22:50:44;20.40;82.50
19258;DHT22;9763;48.780;9.212;2022-09-03T22:54:22;20.40;82.90
19258;DHT22;9763;48.780;9.212;2022-09-03T22:58:01;20.50;83.10
19258;DHT22;9763;48.780;9.212;2022-09-03T23:01:33;20.50;83.10
19258;DHT22;9763;48.780;9.212;2022-09-03T23:05:05;20.50;83.10
19258;DHT22;9763;48.780;9.212;2022-09-03T23:08:34;20.50;83.40